Martinsburg, Iowa
Current Conditions -  °F | °C
As of 6:13 PM on Sunday 23 Nov 2014 (Local Time) from KOTM Reporting Station
Overcast Overcast  
Wind Chill: 52°   Ceiling: 300
Heat Index: 52°   Visibility: 9mi
Dew Point: 51°   Wind: 9mph
Humidity: 97%   Direction: 310°NW
Pressure: 29.29"   Gusts: NA
Location:  41.18°N, 92.25°W
Report Text: KOTM 240013Z AUTO 31008KT 9SM OVC003 11/11 A2929 RMK AO2 T01110106
Loading
Personal Weather Stations






























Interactive Weather Map New forecast layout! Learn more

10-Day Weather Forecast

Advertisements
Track Severe Weather on mobile